LGIRLGKO

Guest
Details From LGIR - Iraklion - Nizos Kazantzakis
To LGKO - KOS
Flight Number -
Tags generated
Created
Modified
Stats Distance 127 nm / 236 km
Max Altitude 5,500 ft / 1,676 m
Waypoints 3
Social Downloads 0
Likes 0
Share VATSIM

Download

Looking for another format? Having issues loading an existing format? Contact us
Advertisement - Login to hide

Notes

Basic altitude profile: - Ascent Rate: 2500ft/min - Ascent Speed: 250kts - Cruise Altitude: 35000ft - Cruise Speed: 420kts - Descent Rate: 1500ft/min - Descent Speed: 250kts Options: - Use NATs: yes - Use PACOTS: yes - Use low airways: yes - Use high airways: no

Route

LGIR BIKRO LGKO

ID Type Via Altitude Latitude Longitude Leg Dist Tot Dist Heading (true) Name
O LGIR APT - 0 ft / 0 m 35.33949˚ 25.18012˚ - 0 nm - Iraklion - Nizos Kazantzakis
BIKRO FIX - 5,500 ft / 1,676 m 36.51333˚ 26.68111˚ 101 nm 101 nm 46° / 46° -
O LGKO APT - 0 ft / 0 m 36.79440˚ 27.09076˚ 25 nm 127 nm 49° / 50° KOS

Altitude Profile

Advertisement - Login to hide

LGIR

Details ICAO LGIR (HER)
Name Iraklion - Nizos Kazantzakis
Region Greece
Timezone Europe/Athens (UTC+2.0)
Stats Elevation 115 ft / 35 m (AMSL)
Location 35.339487° 25.180120°
Runways 3
Magnetic Variation 4.380° E

METAR

LGIR 180450Z 18006KT 9999 SCT025 13/09 Q1017 NOSIG

Decode

TAF

TAF LGIR 172300Z 1800/1824 20012KT 9999 BKN025 PROB30 TEMPO 1812/1818 5000 RA SCT015 BKN070 PROB30 TEMPO 1812/1818 3000 TSRA FEW018CB BKN025 BKN070

Decode

Departure Runways

ID Width Length Bearing (true) Bearing (mag) Surface Threshold Offset Overrun Length
09 148 ft / 45 m 8,755 ft / 2,669 m 94.84° 90.46° Asphalt 1,565 ft / 477 m 200 ft / 61 m
12 164 ft / 50 m 5,136 ft / 1,566 m 126.27° 121.89° Asphalt 499 ft / 152 m 190 ft / 58 m
18 131 ft / 40 m 2,607 ft / 795 m 180.40° 176.02° Asphalt 0 ft / 0 m 0 ft / 0 m
27 148 ft / 45 m 8,755 ft / 2,669 m 274.86° 270.48° Asphalt 0 ft / 0 m 210 ft / 64 m
30 164 ft / 50 m 5,136 ft / 1,566 m 306.28° 301.90° Asphalt 0 ft / 0 m 0 ft / 0 m
36 131 ft / 40 m 2,607 ft / 795 m 0.40° 356.02° Asphalt 328 ft / 100 m 0 ft / 0 m

LGKO

Details ICAO LGKO (KGS)
Name KOS
Region Greece
Timezone Europe/Athens (UTC+2.0)
Stats Elevation 412 ft / 126 m (AMSL)
Location 36.794403° 27.090764°
Runways 1
Magnetic Variation 4.724° E

METAR

LGKO 180450Z 25005KT 9999 SCT025 13/08 Q1016

Decode

TAF

TAF LGKO 172300Z 1800/1824 27016KT 9999 SCT025 BKN050 BECMG 1812/1814 24018G28KT PROB40 TEMPO 1812/1824 5000 RA PROB30 TEMPO 1812/1824 3000 TSRA SCT018CB BKN030 BKN050

Decode

Destination Runways

ID Width Length Bearing (true) Bearing (mag) Surface Threshold Offset Overrun Length
14 148 ft / 45 m 7,923 ft / 2,415 m 148.29° 143.57° Asphalt 0 ft / 0 m 240 ft / 73 m
32 148 ft / 45 m 7,923 ft / 2,415 m 328.30° 323.58° Asphalt 0 ft / 0 m 205 ft / 62 m

Popular Alternatives